Time;durP1;ratioP1;P1;durP2;ratioP2;P2;SDS_P1;SDS_P2;PMS_P1;PMS_P2;Temp;Humidity;BMP_temperature;BMP_pressure;BME280_temperature;BME280_humidity;BME280_pressure;Samples;Min_cycle;Max_cycle;Signal;HPM_P1;HPM_P2
2021/05/15 00:01:36;;;;;;;21.95;14.23;;;;;;;13.75;60.96;100854.22;5032607;28;20473;-87
2021/05/15 00:04:02;;;;;;;24.00;13.65;;;;;;;13.74;60.79;100855.13;5031741;28;20095;-86
2021/05/15 00:06:29;;;;;;;17.88;12.85;;;;;;;13.73;60.88;100850.72;5032248;28;20033;-84
2021/05/15 00:08:57;;;;;;;25.02;14.73;;;;;;;13.74;60.93;100853.34;5031258;28;20104;-81
2021/05/15 00:11:25;;;;;;;22.95;13.43;;;;;;;13.74;60.61;100852.47;5030552;28;20456;-85
2021/05/15 00:13:52;;;;;;;23.27;14.93;;;;;;;13.68;61.16;100842.91;5031650;28;20975;-88
2021/05/15 00:16:19;;;;;;;24.60;13.50;;;;;;;13.66;60.87;100843.88;5029425;28;20365;-88
2021/05/15 00:18:46;;;;;;;22.92;14.20;;;;;;;13.62;61.03;100837.78;5032080;28;20032;-87
2021/05/15 00:21:13;;;;;;;23.65;13.55;;;;;;;13.61;60.66;100829.81;5031763;28;20378;-87
2021/05/15 00:23:40;;;;;;;22.70;13.30;;;;;;;13.57;60.78;100835.25;5031670;28;20025;-86
2021/05/15 00:26:07;;;;;;;19.42;13.10;;;;;;;13.53;61.30;100833.63;5031403;28;20029;-86
2021/05/15 00:28:34;;;;;;;18.40;11.65;;;;;;;13.51;61.09;100827.47;5033010;28;20053;-85
2021/05/15 00:31:00;;;;;;;22.45;13.98;;;;;;;13.47;61.06;100823.19;5034312;28;20022;-86
2021/05/15 00:33:27;;;;;;;18.73;12.27;;;;;;;13.46;61.38;100823.19;5035711;28;20112;-80
2021/05/15 00:36:02;;;;;;;21.88;12.65;;;;;;;13.45;61.48;100824.16;5034217;28;20568;-84
2021/05/15 00:38:28;;;;;;;21.30;11.77;;;;;;;13.37;61.05;100819.00;5033482;28;20033;-81
2021/05/15 00:40:55;;;;;;;24.40;13.90;;;;;;;13.39;61.20;100819.88;5033926;28;20025;-85
2021/05/15 00:43:22;;;;;;;23.85;13.13;;;;;;;13.40;60.98;100822.47;5032782;28;20087;-81
2021/05/15 00:45:48;;;;;;;20.02;13.90;;;;;;;13.40;61.82;100821.63;5033414;28;20040;-84
2021/05/15 00:48:17;;;;;;;19.23;13.23;;;;;;;13.44;61.06;100817.94;5031604;28;20036;-86
2021/05/15 00:50:45;;;;;;;21.02;13.88;;;;;;;13.43;60.99;100817.06;5034350;28;20025;-84
2021/05/15 00:53:11;;;;;;;21.38;12.23;;;;;;;13.43;60.61;100821.50;5035108;28;20069;-83
2021/05/15 00:55:38;;;;;;;19.55;13.00;;;;;;;13.41;61.02;100818.91;5031312;28;20446;-84
2021/05/15 00:58:05;;;;;;;19.25;13.00;;;;;;;13.43;60.91;100813.53;5034678;28;20033;-85
2021/05/15 01:00:33;;;;;;;25.23;13.60;;;;;;;13.45;61.31;100814.34;5033653;28;20030;-86
2021/05/15 01:03:02;;;;;;;20.17;11.68;;;;;;;13.47;61.21;100804.53;5033087;28;20108;-85
2021/05/15 01:05:30;;;;;;;25.38;13.55;;;;;;;13.46;60.57;100805.47;5034342;28;20393;-86
2021/05/15 01:07:56;;;;;;;21.00;13.55;;;;;;;13.47;60.78;100812.53;5034665;28;20029;-86
2021/05/15 01:10:23;;;;;;;22.23;13.93;;;;;;;13.46;61.31;100813.44;5034208;28;20021;-85
2021/05/15 01:12:55;;;;;;;22.17;14.00;;;;;;;13.49;60.84;100816.00;5035304;28;20025;-86
2021/05/15 01:15:26;;;;;;;17.98;11.93;;;;;;;13.54;60.65;100818.50;5035348;28;20083;-86
2021/05/15 01:17:55;;;;;;;17.48;11.85;;;;;;;13.54;60.69;100813.19;5033807;28;20044;-80
2021/05/15 01:20:23;;;;;;;20.67;13.38;;;;;;;13.55;60.87;100804.28;5034805;28;20072;-80
2021/05/15 01:22:56;;;;;;;19.85;12.40;;;;;;;13.54;60.58;100802.53;5035048;28;20014;-85
2021/05/15 01:25:23;;;;;;;20.38;13.63;;;;;;;13.53;60.88;100801.69;5035279;28;20108;-82
2021/05/15 01:27:50;;;;;;;25.75;14.32;;;;;;;13.52;60.83;100794.63;5035035;28;20022;-85
2021/05/15 01:30:17;;;;;;;22.60;14.68;;;;;;;13.53;60.23;100800.78;5033780;28;20037;-86
2021/05/15 01:32:48;;;;;;;22.02;14.30;;;;;;;13.55;60.90;100789.16;5034760;28;20026;-85
2021/05/15 01:35:23;;;;;;;24.60;14.52;;;;;;;13.54;60.49;100790.09;5029819;28;20125;-85
2021/05/15 01:37:56;;;;;;;23.35;13.23;;;;;;;13.52;60.01;100783.06;5035547;28;20491;-81
2021/05/15 01:40:23;;;;;;;26.98;13.45;;;;;;;13.51;60.63;100784.88;5032126;28;20109;-85
2021/05/15 01:42:49;;;;;;;23.25;13.05;;;;;;;13.47;60.67;100777.94;5034842;28;20022;-86
2021/05/15 01:45:26;;;;;;;21.35;14.45;;;;;;;13.53;60.28;100769.75;5034667;28;20040;-85
2021/05/15 01:47:52;;;;;;;20.60;12.70;;;;;;;13.44;60.21;100770.03;5035154;28;20021;-86
2021/05/15 01:50:19;;;;;;;23.73;14.52;;;;;;;13.40;60.68;100763.06;5033294;28;20048;-84
2021/05/15 01:52:45;;;;;;;19.35;12.98;;;;;;;13.41;60.91;100764.81;5020912;28;20026;-86
2021/05/15 01:55:21;;;;;;;23.58;14.02;;;;;;;13.44;60.22;100764.72;5034789;28;20033;-86
2021/05/15 01:57:49;;;;;;;19.58;13.27;;;;;;;13.38;60.99;100760.47;5008548;28;20519;-86
2021/05/15 02:00:18;;;;;;;23.48;14.43;;;;;;;13.34;60.77;100760.59;5028864;28;20037;-85
2021/05/15 02:02:44;;;;;;;27.88;14.75;;;;;;;13.37;60.06;100750.75;5034458;28;20481;-85
2021/05/15 02:05:11;;;;;;;20.17;13.82;;;;;;;13.37;60.78;100750.75;5034732;28;20636;-86
2021/05/15 02:07:38;;;;;;;26.20;15.07;;;;;;;13.40;60.60;100755.09;5034887;28;20495;-86
2021/05/15 02:10:06;;;;;;;26.70;15.45;;;;;;;13.42;60.79;100740.81;5034359;28;20179;-85
2021/05/15 02:12:33;;;;;;;19.92;13.80;;;;;;;13.43;60.81;100728.38;5029495;28;20392;-85
2021/05/15 02:14:59;;;;;;;23.63;13.93;;;;;;;13.45;60.53;100734.50;5034218;28;20034;-86
2021/05/15 02:17:26;;;;;;;28.48;15.68;;;;;;;13.44;60.72;100732.78;5032789;28;20087;-87
2021/05/15 02:19:52;;;;;;;24.15;14.30;;;;;;;13.45;60.70;100726.53;5022678;28;20390;-85
2021/05/15 02:22:19;;;;;;;23.20;15.48;;;;;;;13.46;60.75;100728.28;5025397;28;20038;-85
2021/05/15 02:24:46;;;;;;;21.20;12.23;;;;;;;13.44;60.15;100727.44;5034051;28;20063;-86
2021/05/15 02:27:13;;;;;;;23.77;14.73;;;;;;;13.45;60.66;100718.53;5033919;28;20030;-80
2021/05/15 02:29:40;;;;;;;24.65;13.85;;;;;;;13.50;60.43;100721.91;5033905;28;20499;-85
2021/05/15 02:32:09;;;;;;;25.48;14.63;;;;;;;13.54;60.34;100720.03;5032792;28;20045;-86
2021/05/15 02:34:36;;;;;;;25.73;15.43;;;;;;;13.53;60.67;100716.50;5033757;28;20037;-84
2021/05/15 02:37:03;;;;;;;29.20;16.15;;;;;;;13.57;60.61;100715.47;5033919;28;20500;-85
2021/05/15 02:39:29;;;;;;;24.27;15.07;;;;;;;13.58;60.51;100709.22;5023991;28;20116;-87
2021/05/15 02:41:56;;;;;;;28.50;16.70;;;;;;;13.62;60.86;100709.09;5033879;28;20497;-86
2021/05/15 02:44:23;;;;;;;24.98;15.43;;;;;;;13.64;60.56;100712.59;5033441;28;20480;-86
2021/05/15 02:46:50;;;;;;;23.65;15.48;;;;;;;13.64;60.37;100702.78;5033649;28;20376;-85
2021/05/15 02:49:17;;;;;;;24.77;15.85;;;;;;;13.68;60.71;100704.44;5033715;28;20121;-87
2021/05/15 02:51:43;;;;;;;24.30;15.73;;;;;;;13.68;60.73;100704.44;5008230;28;20374;-86
2021/05/15 02:54:10;;;;;;;31.02;17.25;;;;;;;13.69;60.31;100697.31;5027102;28;20051;-85
2021/05/15 02:56:38;;;;;;;26.52;16.67;;;;;;;13.73;60.28;100699.81;5033715;28;20052;-86
2021/05/15 02:59:05;;;;;;;27.30;17.65;;;;;;;13.74;60.78;100698.91;5032196;28;20030;-86
2021/05/15 03:01:32;;;;;;;23.92;15.65;;;;;;;13.74;60.60;100698.03;5022492;28;20132;-86
2021/05/15 03:03:58;;;;;;;23.67;16.20;;;;;;;13.78;60.50;100698.78;5033335;28;20731;-86
2021/05/15 03:06:25;;;;;;;27.08;16.88;;;;;;;13.79;60.71;100698.72;5033066;28;20030;-85
2021/05/15 03:08:51;;;;;;;24.63;15.10;;;;;;;13.81;60.78;100693.38;5033512;28;20032;-85
2021/05/15 03:11:18;;;;;;;27.42;16.25;;;;;;;13.82;61.05;100695.97;5033334;28;20108;-86
2021/05/15 03:13:45;;;;;;;25.70;15.23;;;;;;;13.86;60.80;100700.25;5033378;28;20033;-86
2021/05/15 03:16:12;;;;;;;25.10;16.17;;;;;;;13.85;60.35;100703.81;5033297;28;20026;-85
2021/05/15 03:18:42;;;;;;;25.13;15.60;;;;;;;13.85;60.50;100701.16;5032858;28;20082;-85
2021/05/15 03:21:08;;;;;;;27.42;15.27;;;;;;;13.82;60.16;100703.94;5033244;28;20064;-85
2021/05/15 03:23:35;;;;;;;29.92;16.30;;;;;;;13.74;60.49;100703.34;5032931;28;20029;-85
2021/05/15 03:26:01;;;;;;;30.02;18.17;;;;;;;13.74;60.34;100695.34;5031718;28;20033;-84
2021/05/15 03:28:27;;;;;;;24.63;16.23;;;;;;;13.73;59.94;100690.94;5030873;28;20499;-84
2021/05/15 03:30:54;;;;;;;26.92;15.52;;;;;;;13.71;60.15;100693.69;5032241;28;20029;-85
2021/05/15 03:33:20;;;;;;;21.88;15.68;;;;;;;13.72;60.32;100694.53;5033095;28;20512;-85
2021/05/15 03:35:46;;;;;;;27.55;16.92;;;;;;;13.69;60.14;100694.66;5032764;28;20034;-86
2021/05/15 03:38:12;;;;;;;24.33;15.73;;;;;;;13.72;59.73;100691.88;5015236;28;20029;-87
2021/05/15 03:40:39;;;;;;;28.05;16.63;;;;;;;13.73;60.18;100693.63;5027877;28;20168;-85
2021/05/15 03:43:05;;;;;;;24.63;15.82;;;;;;;13.75;60.43;100689.13;5032735;28;20034;-86
2021/05/15 03:45:32;;;;;;;27.30;17.40;;;;;;;13.74;59.91;100687.38;5033008;28;20036;-86
2021/05/15 03:47:58;;;;;;;31.80;17.13;;;;;;;13.74;59.79;100685.59;5031359;28;20404;-85
2021/05/15 03:50:26;;;;;;;27.65;17.73;;;;;;;13.70;60.23;100675.97;5032538;28;20025;-86
2021/05/15 03:52:54;;;;;;;27.35;16.70;;;;;;;13.70;59.63;100683.94;5031361;28;20033;-84
2021/05/15 03:55:21;;;;;;;26.02;16.38;;;;;;;13.71;60.12;100680.38;5032827;28;20056;-86
2021/05/15 03:57:48;;;;;;;29.42;18.00;;;;;;;13.67;59.57;100685.84;5029069;28;20034;-86
2021/05/15 04:00:36;;;;;;;32.75;18.23;;;;;;;13.66;59.70;100686.78;5028489;28;20034;-85
2021/05/15 04:03:04;;;;;;;28.35;17.83;;;;;;;13.58;60.27;100685.25;5031631;28;20037;-86
2021/05/15 04:05:31;;;;;;;29.88;17.77;;;;;;;13.53;60.29;100679.25;5033018;28;20551;-85
2021/05/15 04:07:57;;;;;;;28.27;17.40;;;;;;;13.49;59.97;100669.59;5035393;28;20457;-85
2021/05/15 04:10:27;;;;;;;25.58;16.20;;;;;;;13.43;60.34;100675.13;5036298;28;20033;-84
2021/05/15 04:13:05;;;;;;;23.67;16.00;;;;;;;13.47;60.28;100668.81;5036319;28;20021;-84
2021/05/15 04:15:50;;;;;;;31.77;18.83;;;;;;;13.59;59.73;100655.06;5034981;28;20489;-85
2021/05/15 04:18:16;;;;;;;26.58;15.65;;;;;;;13.56;59.87;100647.16;5036220;28;20088;-85
2021/05/15 04:20:44;;;;;;;26.55;16.63;;;;;;;13.63;60.20;100654.94;5036458;28;20022;-84
2021/05/15 04:23:12;;;;;;;26.83;16.67;;;;;;;13.65;60.04;100647.78;5035967;28;20088;-86
2021/05/15 04:25:39;;;;;;;26.58;16.88;;;;;;;13.70;59.83;100651.13;5035257;28;20531;-86
2021/05/15 04:28:07;;;;;;;27.83;17.25;;;;;;;13.73;60.22;100653.69;5036061;28;20116;-85
2021/05/15 04:30:34;;;;;;;28.35;17.85;;;;;;;13.74;60.25;100655.41;5018688;28;20029;-85
2021/05/15 04:33:01;;;;;;;23.35;16.60;;;;;;;13.77;60.52;100658.00;5036498;28;20489;-86
2021/05/15 04:35:28;;;;;;;28.17;16.73;;;;;;;13.79;60.65;100656.13;5036078;28;20039;-84
2021/05/15 04:37:54;;;;;;;26.60;16.08;;;;;;;13.81;60.09;100651.63;5034707;28;20036;-85
2021/05/15 04:40:21;;;;;;;30.10;18.10;;;;;;;13.82;60.35;100656.03;5035696;28;20508;-83
2021/05/15 04:42:47;;;;;;;38.83;19.23;;;;;;;13.84;59.81;100654.16;5035812;28;20037;-85
2021/05/15 04:45:14;;;;;;;28.08;16.50;;;;;;;13.88;60.05;100658.47;5034489;28;20034;-84
2021/05/15 04:47:42;;;;;;;30.65;15.90;;;;;;;13.88;59.93;100652.25;5014544;28;20071;-85
2021/05/15 04:50:10;;;;;;;22.50;14.52;;;;;;;13.88;59.95;100655.78;5035600;28;20053;-85
2021/05/15 04:52:37;;;;;;;23.55;15.40;;;;;;;13.88;59.94;100665.56;5032827;28;20030;-85
2021/05/15 04:55:05;;;;;;;28.83;15.35;;;;;;;13.91;59.68;100662.81;5027010;28;20061;-85
2021/05/15 04:57:31;;;;;;;27.92;14.73;;;;;;;13.90;60.16;100666.38;5035787;28;20083;-85
2021/05/15 04:59:57;;;;;;;24.52;15.50;;;;;;;13.92;59.76;100661.88;5030382;28;20504;-85
2021/05/15 05:02:25;;;;;;;23.00;15.07;;;;;;;13.96;59.45;100659.97;5016719;28;20088;-85
2021/05/15 05:04:51;;;;;;;30.08;16.42;;;;;;;13.91;59.88;100650.34;5032570;28;20397;-85
2021/05/15 05:07:18;;;;;;;20.83;15.40;;;;;;;13.95;59.76;100652.91;5032018;28;20048;-85
2021/05/15 05:09:44;;;;;;;27.02;16.05;;;;;;;13.98;60.14;100652.78;5035296;28;20037;-86
2021/05/15 05:12:10;;;;;;;28.48;16.42;;;;;;;13.98;60.13;100644.78;5034720;28;20071;-85
2021/05/15 05:14:38;;;;;;;26.02;16.92;;;;;;;14.01;60.00;100647.34;5029990;28;20022;-86
2021/05/15 05:17:05;;;;;;;24.13;16.38;;;;;;;14.03;59.84;100640.16;5033429;28;20113;-85
2021/05/15 05:19:34;;;;;;;27.40;16.60;;;;;;;14.02;59.89;100644.63;5033895;28;20396;-85
2021/05/15 05:22:02;;;;;;;28.27;16.52;;;;;;;14.05;59.87;100643.63;5032121;28;20057;-87
2021/05/15 05:24:30;;;;;;;23.23;14.93;;;;;;;14.09;60.17;100650.56;5029586;28;20037;-86
2021/05/15 05:26:57;;;;;;;27.92;16.42;;;;;;;14.08;59.76;100643.50;5030029;28;20608;-85
2021/05/15 05:29:24;;;;;;;26.15;14.88;;;;;;;14.06;60.04;100646.22;5034562;28;20021;-84
2021/05/15 05:31:51;;;;;;;30.88;16.58;;;;;;;14.07;59.72;100650.63;5034934;28;20433;-85
2021/05/15 05:34:19;;;;;;;24.58;16.48;;;;;;;14.09;59.71;100645.25;5034772;28;20100;-85
2021/05/15 05:36:47;;;;;;;22.67;14.73;;;;;;;14.10;60.18;100641.66;5034694;28;20020;-85
2021/05/15 05:39:16;;;;;;;32.42;16.73;;;;;;;14.16;59.95;100644.09;5032129;28;20734;-80
2021/05/15 05:41:44;;;;;;;26.17;16.30;;;;;;;14.18;60.21;100634.25;5032664;28;20444;-86
2021/05/15 05:44:11;;;;;;;25.42;14.73;;;;;;;14.16;60.25;100641.44;5032378;28;20033;-86
2021/05/15 05:46:38;;;;;;;23.10;14.35;;;;;;;14.16;60.17;100641.44;5032346;28;20033;-86
2021/05/15 05:49:05;;;;;;;24.05;14.43;;;;;;;14.17;59.87;100643.16;5030275;28;20071;-84
2021/05/15 05:51:33;;;;;;;23.58;15.40;;;;;;;14.15;59.73;100644.16;5033039;28;20021;-86
2021/05/15 05:54:02;;;;;;;23.27;14.90;;;;;;;14.15;60.09;100639.69;5034742;28;20067;-83
2021/05/15 05:56:28;;;;;;;22.95;15.63;;;;;;;14.12;60.07;100639.81;5034143;28;20256;-85
2021/05/15 05:58:55;;;;;;;23.27;14.98;;;;;;;14.15;59.79;100642.34;5032408;28;20033;-86
2021/05/15 06:01:22;;;;;;;26.95;15.07;;;;;;;14.11;60.00;100648.72;5033444;28;20029;-87
2021/05/15 06:03:49;;;;;;;25.33;14.73;;;;;;;14.07;59.69;100647.97;5033555;28;20037;-80
2021/05/15 06:06:15;;;;;;;22.80;14.57;;;;;;;14.05;59.80;100636.50;5030371;28;20099;-85
2021/05/15 06:08:42;;;;;;;28.13;15.45;;;;;;;14.07;59.85;100645.31;5028274;28;20473;-87
2021/05/15 06:11:09;;;;;;;24.35;14.27;;;;;;;14.08;59.78;100641.72;5034021;28;20109;-83
2021/05/15 06:13:35;;;;;;;20.17;14.70;;;;;;;14.12;60.03;100638.94;5033555;28;20026;-84
2021/05/15 06:16:03;;;;;;;23.80;16.17;;;;;;;14.14;60.20;100637.94;5032901;28;20033;-88
2021/05/15 06:18:29;;;;;;;27.08;15.38;;;;;;;14.11;59.66;100631.91;5031110;28;20072;-82
2021/05/15 06:21:00;;;;;;;26.20;13.00;;;;;;;14.14;59.59;100629.94;5032677;28;20468;-85
2021/05/15 06:23:30;;;;;;;25.02;12.75;;;;;;;14.11;59.88;100638.06;5032747;28;20033;-88
2021/05/15 06:25:56;;;;;;;18.00;11.98;;;;;;;14.07;59.42;100629.34;5033984;28;20108;-88
2021/05/15 06:28:22;;;;;;;20.83;12.10;;;;;;;14.07;59.77;100631.13;5028424;28;20033;-88
2021/05/15 06:30:54;;;;;;;17.65;11.75;;;;;;;14.12;59.59;100631.81;5033930;28;20029;-86
2021/05/15 06:33:20;;;;;;;20.15;11.98;;;;;;;14.10;59.91;100631.00;5022614;28;20083;-89
2021/05/15 06:35:47;;;;;;;19.98;11.43;;;;;;;14.12;59.71;100628.28;5030714;28;20025;-87
2021/05/15 06:38:13;;;;;;;21.52;10.80;;;;;;;14.17;59.85;100627.19;5033819;28;20551;-84
2021/05/15 06:40:45;;;;;;;16.60;11.43;;;;;;;14.27;60.15;100630.38;5033635;28;20116;-86
2021/05/15 06:43:11;;;;;;;18.40;11.27;;;;;;;14.27;59.97;100626.81;5034017;28;20038;-85
2021/05/15 06:45:37;;;;;;;18.50;11.73;;;;;;;14.33;59.58;100623.91;5033945;28;20025;-88
2021/05/15 06:48:07;;;;;;;16.08;11.10;;;;;;;14.40;59.98;100625.41;5034116;28;20041;-87
2021/05/15 06:50:34;;;;;;;15.45;11.27;;;;;;;14.45;59.39;100623.44;5034060;28;20033;-88
2021/05/15 06:53:00;;;;;;;17.67;12.00;;;;;;;14.53;59.31;100629.34;5034050;28;20025;-89
2021/05/15 06:55:26;;;;;;;20.83;13.13;;;;;;;14.53;58.84;100623.16;5033473;28;20044;-87
2021/05/15 06:57:53;;;;;;;19.00;11.77;;;;;;;14.55;58.80;100624.81;5032838;28;20091;-86
2021/05/15 07:00:21;;;;;;;17.13;11.52;;;;;;;14.69;58.55;100618.06;5033295;28;20080;-88
2021/05/15 07:02:50;;;;;;;16.73;12.32;;;;;;;14.91;58.12;100611.88;5033453;28;20108;-88
2021/05/15 07:05:18;;;;;;;26.70;13.63;;;;;;;14.92;58.01;100608.28;5033323;28;20049;-87
2021/05/15 07:07:44;;;;;;;21.27;13.02;;;;;;;14.91;57.65;100610.06;5032467;28;20072;-86
2021/05/15 07:10:11;;;;;;;19.95;12.30;;;;;;;14.90;57.41;100607.47;5031078;28;20025;-86
2021/05/15 07:12:38;;;;;;;21.65;13.98;;;;;;;14.84;57.45;100604.13;5031189;28;20022;-87
2021/05/15 07:15:06;;;;;;;24.60;14.27;;;;;;;14.89;57.19;100609.25;5029911;28;20037;-87
2021/05/15 07:17:33;;;;;;;25.80;14.57;;;;;;;14.93;57.16;100593.97;5024009;28;20041;-90
2021/05/15 07:20:00;;;;;;;22.98;14.35;;;;;;;14.99;57.19;100602.59;5024569;28;20071;-86
2021/05/15 07:22:27;;;;;;;23.30;13.88;;;;;;;15.07;57.11;100591.59;5033201;28;20091;-90
2021/05/15 07:24:55;;;;;;;19.90;13.73;;;;;;;15.13;56.62;100591.34;5031631;28;20087;-87
2021/05/15 07:27:23;;;;;;;22.73;14.10;;;;;;;15.22;56.46;100590.06;5032813;28;20064;-88
2021/05/15 07:29:53;;;;;;;28.98;13.75;;;;;;;15.21;56.09;100588.34;5031880;28;20124;-88
2021/05/15 07:32:21;;;;;;;20.40;14.60;;;;;;;15.24;55.79;100574.00;5030613;28;20034;-89
2021/05/15 07:34:47;;;;;;;21.40;12.95;;;;;;;15.30;55.57;100582.63;5031958;28;20025;-90
2021/05/15 07:37:15;;;;;;;21.55;13.70;;;;;;;15.41;55.51;100584.78;5030674;28;20029;-87
2021/05/15 07:39:42;;;;;;;20.35;13.77;;;;;;;15.46;55.09;100582.78;5031509;28;20571;-85
2021/05/15 07:42:09;;;;;;;22.88;14.35;;;;;;;15.53;54.52;100581.56;5032711;28;20048;-85
2021/05/15 07:44:35;;;;;;;22.73;14.13;;;;;;;15.59;54.34;100576.88;5031717;28;20084;-85
2021/05/15 07:47:05;;;;;;;22.70;14.38;;;;;;;15.66;53.74;100573.00;5030030;28;20058;-87
2021/05/15 07:49:31;;;;;;;24.70;14.02;;;;;;;15.59;53.87;100571.53;5029023;28;20060;-87
2021/05/15 07:51:57;;;;;;;20.90;12.27;;;;;;;15.69;53.34;100568.41;5029296;28;20484;-87
2021/05/15 07:54:24;;;;;;;18.33;12.43;;;;;;;15.74;52.69;100569.97;5026003;28;20116;-85
2021/05/15 07:56:51;;;;;;;23.20;12.73;;;;;;;15.82;52.44;100567.88;5032793;28;20479;-84
2021/05/15 07:59:17;;;;;;;26.63;15.20;;;;;;;15.87;52.55;100559.63;5028951;28;20041;-82
2021/05/15 08:01:44;;;;;;;25.10;14.10;;;;;;;15.95;52.46;100560.13;5027771;28;20026;-80
2021/05/15 08:04:11;;;;;;;19.10;12.93;;;;;;;16.00;52.42;100558.13;5032561;28;20037;-86
2021/05/15 08:06:37;;;;;;;18.48;12.57;;;;;;;16.06;52.49;100576.53;5033075;28;20105;-86
2021/05/15 08:09:05;;;;;;;17.05;11.50;;;;;;;16.13;52.32;100566.44;5030759;28;20112;-86
2021/05/15 08:11:57;;;;;;;17.10;10.45;;;;;;;16.24;50.52;100558.75;5031303;28;20025;-87
2021/05/15 08:14:23;;;;;;;14.50;10.20;;;;;;;16.12;51.47;100565.53;5032782;28;20033;-86
2021/05/15 08:16:50;;;;;;;16.13;11.25;;;;;;;16.03;51.13;100574.00;5032510;28;20029;-85
2021/05/15 08:19:17;;;;;;;19.40;11.95;;;;;;;15.94;51.00;100566.44;5032127;28;20037;-86
2021/05/15 08:21:43;;;;;;;17.27;10.75;;;;;;;16.01;51.03;100565.19;5032157;28;20021;-86
2021/05/15 08:24:12;;;;;;;13.55;9.73;;;;;;;15.96;50.21;100560.09;5032130;28;20025;-87
2021/05/15 08:26:45;;;;;;;12.45;8.38;;;;;;;16.15;49.60;100560.06;5030372;28;20037;-86
2021/05/15 08:29:13;;;;;;;14.68;10.35;;;;;;;16.16;49.72;100556.47;5031520;28;20022;-87
2021/05/15 08:31:40;;;;;;;16.02;9.52;;;;;;;16.25;49.98;100559.59;5031462;28;20083;-87
2021/05/15 08:34:08;;;;;;;16.35;9.25;;;;;;;16.39;49.37;100551.78;5032045;28;20373;-87
2021/05/15 08:36:35;;;;;;;14.88;9.18;;;;;;;16.50;49.29;100543.25;5031064;28;20025;-79
2021/05/15 08:39:07;;;;;;;16.55;10.38;;;;;;;16.55;49.38;100541.22;5030467;28;20485;-87
2021/05/15 08:41:34;;;;;;;14.50;10.48;;;;;;;16.65;48.71;100541.63;5029175;28;20030;-87
2021/05/15 08:44:06;;;;;;;14.27;8.95;;;;;;;16.79;48.70;100547.13;5031653;28;20030;-90
2021/05/15 08:46:32;;;;;;;11.40;8.73;;;;;;;16.79;48.63;100547.13;5024023;28;20034;-83
2021/05/15 08:49:05;;;;;;;13.65;8.93;;;;;;;16.81;48.88;100541.72;5027760;28;20036;-82
2021/05/15 08:51:34;;;;;;;12.10;9.23;;;;;;;16.96;48.55;100529.38;5032198;28;20021;-83
2021/05/15 08:54:01;;;;;;;14.85;9.77;;;;;;;16.98;48.23;100540.84;5034912;28;20178;-87
2021/05/15 08:56:29;;;;;;;16.50;10.48;;;;;;;16.96;47.65;100534.75;5034644;28;20029;-83
2021/05/15 08:59:01;;;;;;;15.65;10.60;;;;;;;17.05;48.04;100533.41;5033352;28;20437;-87
2021/05/15 09:01:28;;;;;;;18.85;10.57;;;;;;;16.98;48.43;100532.84;5031663;28;20029;-87
2021/05/15 09:03:54;;;;;;;13.38;9.60;;;;;;;17.02;48.66;100534.41;5034944;28;20083;-87
2021/05/15 09:06:21;;;;;;;16.60;9.73;;;;;;;17.10;48.94;100534.88;5033213;28;20112;-86
2021/05/15 09:08:49;;;;;;;14.55;9.57;;;;;;;17.17;48.70;100529.19;5029819;28;20523;-86
2021/05/15 09:11:15;;;;;;;13.57;9.40;;;;;;;17.30;48.05;100527.59;5030346;28;20063;-86
2021/05/15 09:13:51;;;;;;;13.20;9.82;;;;;;;17.55;47.83;100523.63;5033416;28;20025;-87
2021/05/15 09:16:17;;;;;;;15.05;10.15;;;;;;;17.49;47.52;100527.47;5033555;28;20044;-86
2021/05/15 09:18:44;;;;;;;15.23;10.43;;;;;;;17.70;47.87;100520.09;5033699;28;20073;-80
2021/05/15 09:21:15;;;;;;;16.58;9.82;;;;;;;17.88;47.35;100522.69;5031765;28;20030;-85
2021/05/15 09:23:45;;;;;;;19.15;10.73;;;;;;;17.89;47.51;100508.34;5032815;28;20104;-85
2021/05/15 09:26:14;;;;;;;13.02;10.02;;;;;;;17.89;47.60;100508.34;5033485;28;20092;-86
2021/05/15 09:31:45;;;;;;;19.13;12.27;;;;;;;17.78;46.81;100503.56;5057133;28;20473;-85
2021/05/15 09:34:12;;;;;;;15.02;10.82;;;;;;;17.71;46.89;100499.53;5050427;28;20032;-85
2021/05/15 09:36:42;;;;;;;16.75;11.55;;;;;;;17.70;46.94;100501.31;5049560;28;20036;-82
2021/05/15 09:39:13;;;;;;;21.70;12.90;;;;;;;17.62;46.96;100491.03;5039013;28;20029;-86
2021/05/15 09:44:36;;;;;;;21.05;13.52;;;;;;;17.57;46.62;100486.88;5067186;28;20429;-82
2021/05/15 09:47:05;;;;;;;59.55;31.90;;;;;;;17.70;47.33;100487.06;5040499;28;20116;-85
2021/05/15 09:49:33;;;;;;;23.58;15.40;;;;;;;17.81;47.12;100489.13;5053731;28;20485;-81
2021/05/15 09:52:06;;;;;;;21.52;14.15;;;;;;;17.81;46.76;100481.09;5044405;28;20112;-87
2021/05/15 09:54:36;;;;;;;19.80;13.00;;;;;;;17.83;46.72;100479.22;5048367;28;20029;-89
2021/05/15 09:57:28;;;;;;;21.15;13.50;;;;;;;17.86;46.38;100479.06;5043376;28;20040;-88
2021/05/15 10:00:15;;;;;;;21.50;14.68;;;;;;;17.64;47.28;100477.56;5042958;28;20060;-81
2021/05/15 10:02:51;;;;;;;20.95;13.98;;;;;;;17.60;47.85;100470.66;5047219;28;20059;-90
2021/05/15 10:05:18;;;;;;;18.83;13.45;;;;;;;17.61;48.11;100467.88;5046293;28;20111;-85
2021/05/15 10:07:44;;;;;;;23.50;14.38;;;;;;;17.55;48.01;100467.34;5046321;28;20048;-84
2021/05/15 10:10:11;;;;;;;20.80;13.98;;;;;;;17.52;48.42;100464.84;5042279;28;20029;-87
2021/05/15 10:12:41;;;;;;;19.73;14.68;;;;;;;17.54;48.60;100463.81;5043925;28;20041;-85
2021/05/15 10:15:12;;;;;;;24.08;14.90;;;;;;;17.70;48.64;100466.50;5049067;28;20029;-90
2021/05/15 10:17:40;;;;;;;22.33;15.60;;;;;;;17.85;48.44;100461.25;5048153;28;20037;-91
2021/05/15 10:20:08;;;;;;;22.15;13.95;;;;;;;18.02;48.75;100449.56;5045991;28;20041;-90
2021/05/15 10:22:38;;;;;;;21.75;14.98;;;;;;;18.16;48.09;100446.09;5044018;28;20050;-89
2021/05/15 10:25:11;;;;;;;23.65;15.75;;;;;;;18.24;48.02;100446.50;5052355;28;20033;-86
2021/05/15 10:27:38;;;;;;;25.92;17.65;;;;;;;18.20;47.79;100439.59;5054699;28;20028;-88
2021/05/15 10:30:25;;;;;;;25.27;17.90;;;;;;;18.29;46.93;100439.06;5053047;28;20407;-88
2021/05/15 10:32:55;;;;;;;25.73;17.52;;;;;;;18.18;47.92;100433.47;5049751;28;20048;-87
2021/05/15 10:35:43;;;;;;;27.73;18.77;;;;;;;18.29;48.05;100425.63;5043909;28;20080;-88
2021/05/15 10:38:13;;;;;;;24.65;18.02;;;;;;;18.19;48.01;100424.47;5049455;28;20027;-87
2021/05/15 10:40:45;;;;;;;27.17;18.80;;;;;;;18.18;47.54;100420.06;5049905;28;20377;-92
2021/05/15 10:43:34;;;;;;;26.73;19.42;;;;;;;18.15;47.76;100422.94;5051261;28;20127;-86
2021/05/15 10:46:15;;;;;;;27.77;19.70;;;;;;;18.04;47.47;100415.50;5051234;28;20132;-83
2021/05/15 10:48:42;;;;;;;26.80;20.88;;;;;;;17.86;47.61;100404.88;5048922;28;20488;-86
2021/05/15 10:51:09;;;;;;;32.25;21.95;;;;;;;17.83;47.91;100406.84;5052499;28;20032;-84
2021/05/15 10:53:36;;;;;;;35.55;23.15;;;;;;;17.72;48.14;100405.66;5047085;28;20049;-80
2021/05/15 10:59:05;;;;;;;36.88;25.33;;;;;;;17.55;48.34;100413.78;5042692;28;20400;-86
2021/05/15 11:01:44;;;;;;;108.25;65.45;;;;;;;17.50;48.43;100410.50;5004257;28;20490;-83
2021/05/15 11:04:23;;;;;;;51.90;33.92;;;;;;;17.52;49.34;100408.59;5000648;28;20482;-84
2021/05/15 11:10:04;;;;;;;43.25;27.77;;;;;;;17.62;48.52;100397.28;5060306;28;20440;-83
2021/05/15 11:12:39;;;;;;;43.83;28.55;;;;;;;17.62;49.02;100391.91;5046895;28;20116;-83
2021/05/15 11:15:09;;;;;;;44.72;28.33;;;;;;;17.56;49.75;100386.06;5044162;28;20036;-82
2021/05/15 11:17:35;;;;;;;46.42;29.67;;;;;;;17.57;49.72;100390.44;5045543;28;20100;-81
2021/05/15 11:22:47;;;;;;;49.88;30.45;;;;;;;17.70;49.72;100378.09;5126610;27;20370;-84
2021/05/15 11:28:05;;;;;;;50.40;31.20;;;;;;;17.84;49.64;100376.44;5082768;27;20413;-82
2021/05/15 11:30:36;;;;;;;59.53;39.45;;;;;;;18.05;49.46;100368.97;5057564;28;20113;-82
2021/05/15 11:33:06;;;;;;;63.75;41.13;;;;;;;18.36;49.21;100354.59;5056677;28;20025;-82